Time;durP1;ratioP1;P1;durP2;ratioP2;P2;SDS_P1;SDS_P2;PMS_P1;PMS_P2;Temp;Humidity;BMP_temperature;BMP_pressure;BME280_temperature;BME280_humidity;BME280_pressure;Samples;Min_cycle;Max_cycle;Signal;HPM_P1;HPM_P2
2022/10/07 00:00:29;;;;;;;20.20;10.70;;;;;;;10.25;79.40;100330.47;86306;1287;24243;-75
2022/10/07 00:02:50;;;;;;;;;;;;;;;10.21;79.31;100327.38;86382;1281;25876;-75
2022/10/07 00:04:51;;;;;;;;;;;;;;;10.18;79.54;100329.92;86485;1305;83884;-74
2022/10/07 00:06:53;;;;;;;23.20;10.80;;;;;;;10.14;79.45;100332.30;86472;1285;22621;-73
2022/10/07 00:08:55;;;;;;;14.50;9.90;;;;;;;10.10;79.39;100326.08;86357;1288;22562;-74
2022/10/07 00:10:57;;;;;;;26.50;10.50;;;;;;;10.10;79.42;100323.81;86525;1285;97464;-75
2022/10/07 00:13:00;;;;;;;18.40;9.60;;;;;;;10.06;79.58;100323.36;86434;1290;22505;-75
2022/10/07 00:15:02;;;;;;;31.30;11.10;;;;;;;10.05;79.37;100322.16;86372;1309;22487;-75
2022/10/07 00:17:03;;;;;;;15.30;10.20;;;;;;;10.04;79.58;100320.61;86400;1284;99359;-76
2022/10/07 00:19:09;;;;;;;19.70;10.90;;;;;;;10.03;79.53;100319.05;86412;1282;23124;-75
2022/10/07 00:21:13;;;;;;;18.50;10.30;;;;;;;10.01;79.64;100318.21;86627;1301;22705;-74
2022/10/07 00:23:15;;;;;;;21.40;11.00;;;;;;;10.00;79.64;100317.52;86750;1284;99453;-75
2022/10/07 00:25:16;;;;;;;18.30;10.70;;;;;;;10.00;79.75;100318.77;86400;1293;22534;-74
2022/10/07 00:27:18;;;;;;;22.40;10.80;;;;;;;9.99;79.64;100317.20;86277;1287;22553;-76
2022/10/07 00:29:19;;;;;;;14.90;9.70;;;;;;;9.95;79.54;100319.05;86440;1285;99563;-74
2022/10/07 00:31:24;;;;;;;12.80;9.30;;;;;;;9.87;79.65;100318.89;86338;1288;23216;-76
2022/10/07 00:33:30;;;;;;;14.70;9.10;;;;;;;9.80;79.44;100316.42;86476;1304;29646;-76
2022/10/07 00:35:35;;;;;;;19.60;9.90;;;;;;;9.75;79.49;100313.91;86429;1301;98327;-75
2022/10/07 00:37:41;;;;;;;13.10;9.70;;;;;;;9.72;79.47;100309.92;86730;1284;22507;-75
2022/10/07 00:39:44;;;;;;;14.30;9.90;;;;;;;9.70;79.53;100309.64;86400;1288;22474;-76
2022/10/07 00:41:51;;;;;;;22.20;9.10;;;;;;;9.68;79.76;100307.58;86395;1309;97253;-74
2022/10/07 00:43:53;;;;;;;14.60;8.90;;;;;;;9.67;79.85;100306.39;86590;1290;22412;-74
2022/10/07 00:46:11;;;;;;;17.30;9.40;;;;;;;9.62;79.81;100297.71;86321;1295;97702;-75
2022/10/07 00:48:20;;;;;;;16.70;8.90;;;;;;;9.65;79.84;100301.86;86667;1284;22520;-76
2022/10/07 00:50:28;;;;;;;17.90;9.60;;;;;;;9.64;79.85;100301.70;86405;1284;22551;-75
2022/10/07 00:52:33;;;;;;;24.20;9.80;;;;;;;9.63;79.87;100298.55;86283;1295;98507;-75
2022/10/07 00:54:37;;;;;;;17.80;9.60;;;;;;;9.62;79.84;100292.63;86620;1298;22484;-76
2022/10/07 00:56:40;;;;;;;21.80;10.00;;;;;;;9.61;80.03;100293.35;86619;1289;24309;-76
2022/10/07 00:58:46;;;;;;;21.10;11.60;;;;;;;9.59;80.24;100291.30;86347;1295;97524;-75
2022/10/07 01:00:47;;;;;;;28.00;15.00;;;;;;;9.55;79.95;100289.82;86395;1310;22504;-74
2022/10/07 01:02:50;;;;;;;30.70;19.50;;;;;;;9.51;80.04;100290.23;86402;1309;24244;-74
2022/10/07 01:04:53;;;;;;;47.40;22.10;;;;;;;9.48;80.23;100288.02;86333;1287;97415;-76
2022/10/07 01:06:55;;;;;;;41.10;23.30;;;;;;;9.46;80.14;100291.95;86200;1310;25378;-75
2022/10/07 01:08:57;;;;;;;35.40;21.70;;;;;;;9.42;79.95;100289.39;86287;1294;22969;-73
2022/10/07 01:11:40;;;;;;;30.70;17.50;;;;;;;9.40;80.07;100287.16;86505;1291;98716;-75
2022/10/07 01:13:51;;;;;;;26.90;15.60;;;;;;;9.37;80.27;100286.16;86392;1286;22524;-75
2022/10/07 01:16:22;;;;;;;24.60;13.50;;;;;;;9.36;80.04;100282.33;86375;1285;98663;-75
2022/10/07 01:18:44;;;;;;;19.90;12.40;;;;;;;9.32;80.12;100283.81;86327;1294;23588;-76
2022/10/07 01:21:00;;;;;;;21.80;11.70;;;;;;;9.31;80.16;100283.14;86387;1295;24246;-75
2022/10/07 01:23:27;;;;;;;17.90;10.60;;;;;;;9.28;79.96;100280.91;86340;1286;99813;-75
2022/10/07 01:25:50;;;;;;;17.20;11.10;;;;;;;9.21;79.98;100278.98;86530;1284;23425;-76
2022/10/07 01:27:59;;;;;;;16.10;9.90;;;;;;;9.13;79.94;100278.27;86471;1277;107027;-76
2022/10/07 01:30:05;;;;;;;15.70;9.60;;;;;;;9.07;79.81;100278.22;86471;1312;22463;-77
2022/10/07 01:32:07;;;;;;;11.30;8.40;;;;;;;9.04;80.01;100276.70;86695;1311;22653;-78
2022/10/07 01:34:10;;;;;;;15.10;8.40;;;;;;;8.99;79.97;100276.80;86728;1308;97846;-78
2022/10/07 01:36:20;;;;;;;14.70;8.20;;;;;;;8.93;79.81;100276.05;86681;1310;25290;-77
2022/10/07 01:38:27;;;;;;;20.90;9.00;;;;;;;8.90;79.89;100273.47;86497;1294;22501;-76
2022/10/07 01:40:54;;;;;;;20.40;8.40;;;;;;;8.89;79.83;100269.98;86616;1295;97286;-76
2022/10/07 01:42:57;;;;;;;25.50;9.30;;;;;;;8.88;80.28;100269.86;86023;1299;22523;-77
2022/10/07 01:45:32;;;;;;;19.10;8.60;;;;;;;8.86;79.90;100264.45;86597;1318;22661;-76
2022/10/07 01:47:33;;;;;;;16.00;8.30;;;;;;;8.83;80.03;100264.85;86172;1293;97519;-76
2022/10/07 01:49:36;;;;;;;19.80;9.30;;;;;;;8.80;80.14;100260.89;85881;1299;22478;-75
2022/10/07 01:51:40;;;;;;;17.30;8.60;;;;;;;8.78;80.19;100259.36;85757;1295;22853;-75
2022/10/07 01:53:48;;;;;;;10.80;7.80;;;;;;;8.75;79.99;100255.92;85773;1303;98563;-76
2022/10/07 01:56:06;;;;;;;16.50;7.50;;;;;;;8.73;80.21;100255.27;86088;1301;22480;-74
2022/10/07 01:58:30;;;;;;;15.20;7.60;;;;;;;8.69;80.28;100254.64;85776;1318;98374;-75
2022/10/07 02:00:37;;;;;;;10.40;7.80;;;;;;;8.64;80.07;100252.26;85958;1300;22498;-75
2022/10/07 02:03:16;;;;;;;14.30;7.60;;;;;;;8.62;80.57;100253.88;85875;1299;24277;-76
2022/10/07 02:05:33;;;;;;;12.70;7.60;;;;;;;8.54;80.38;100258.59;85638;1319;99345;-75
2022/10/07 02:07:44;;;;;;;8.80;7.80;;;;;;;8.48;80.20;100257.83;85802;1305;22443;-77
2022/10/07 02:09:57;;;;;;;11.60;7.80;;;;;;;8.47;80.56;100256.98;85865;1303;22461;-76
2022/10/07 02:12:20;;;;;;;12.40;7.20;;;;;;;8.46;80.13;100255.06;85786;1300;22596;-76
2022/10/07 02:14:30;;;;;;;17.10;7.10;;;;;;;8.46;80.23;100259.27;85513;1309;23337;-76
2022/10/07 02:16:55;;;;;;;14.90;7.50;;;;;;;8.43;80.39;100260.70;85503;1309;98523;-76
2022/10/07 02:19:02;;;;;;;11.10;6.40;;;;;;;8.39;80.43;100256.74;85849;1318;22446;-77
2022/10/07 02:21:07;;;;;;;20.00;8.20;;;;;;;8.38;80.40;100250.63;86104;1290;22677;-77
2022/10/07 02:23:11;;;;;;;15.00;7.50;;;;;;;8.38;80.59;100253.42;86194;1301;98876;-76
2022/10/07 02:25:16;;;;;;;11.50;6.80;;;;;;;8.37;80.44;100253.98;86176;1310;22826;-76
2022/10/07 02:27:26;;;;;;;16.20;7.70;;;;;;;8.35;80.42;100256.29;86244;1300;22850;-76
2022/10/07 02:29:33;;;;;;;10.40;7.40;;;;;;;8.33;80.09;100254.77;85972;1310;98114;-76
2022/10/07 02:31:40;;;;;;;16.30;7.80;;;;;;;8.32;80.35;100249.67;86156;1289;25220;-76
2022/10/07 02:33:45;;;;;;;18.90;7.90;;;;;;;8.32;80.68;100249.33;86143;1306;22682;-77
2022/10/07 02:35:57;;;;;;;11.20;7.50;;;;;;;8.31;80.78;100243.92;86019;1316;97327;-76
2022/10/07 02:38:04;;;;;;;19.80;8.10;;;;;;;8.30;80.72;100240.98;86185;1315;24306;-77
2022/10/07 02:40:06;;;;;;;16.30;8.00;;;;;;;8.28;80.73;100242.93;85918;1294;99620;-76
2022/10/07 02:42:32;;;;;;;16.70;7.90;;;;;;;8.27;80.65;100242.61;86547;1295;22643;-76
2022/10/07 02:44:50;;;;;;;9.00;7.50;;;;;;;8.24;80.39;100239.86;86859;1301;25223;-77
2022/10/07 02:47:02;;;;;;;11.70;7.80;;;;;;;8.21;80.51;100240.25;86578;1309;97257;-76
2022/10/07 02:49:08;;;;;;;15.90;8.10;;;;;;;8.18;80.79;100234.88;86628;1309;22420;-76
2022/10/07 02:51:17;;;;;;;12.00;7.90;;;;;;;8.15;80.55;100235.28;86788;1294;23059;-75
2022/10/07 02:53:21;;;;;;;26.10;8.80;;;;;;;8.13;80.74;100236.72;86518;1309;97376;-75
2022/10/07 02:55:26;;;;;;;51.90;8.80;;;;;;;8.12;80.85;100233.77;86742;1295;25380;-75
2022/10/07 02:57:33;;;;;;;23.80;9.30;;;;;;;8.10;80.76;100232.04;86686;1309;22485;-77
2022/10/07 02:59:36;;;;;;;21.20;8.70;;;;;;;8.10;80.66;100230.48;86604;1301;97942;-77
2022/10/07 03:01:44;;;;;;;21.10;7.90;;;;;;;8.10;80.75;100230.48;86738;1285;22504;-76
2022/10/07 03:03:45;;;;;;;17.10;8.50;;;;;;;8.09;80.75;100229.80;86883;1288;22488;-77
2022/10/07 03:05:48;;;;;;;16.70;7.80;;;;;;;8.05;80.55;100232.49;86428;1313;98693;-76
2022/10/07 03:08:00;;;;;;;13.90;8.90;;;;;;;7.97;80.52;100231.40;86780;1309;24238;-79
2022/10/07 03:10:03;;;;;;;12.90;7.80;;;;;;;7.90;80.56;100228.20;86567;1295;97927;-76
2022/10/07 03:12:06;;;;;;;16.60;7.80;;;;;;;7.87;80.39;100223.52;86595;1298;22473;-76
2022/10/07 03:14:09;;;;;;;13.40;7.80;;;;;;;7.85;80.63;100228.96;86533;1309;24243;-76
2022/10/07 03:16:10;;;;;;;15.50;7.50;;;;;;;7.82;80.47;100225.88;86612;1295;97994;-74
2022/10/07 03:18:25;;;;;;;13.00;7.40;;;;;;;7.78;80.63;100225.42;86505;1295;22559;-75
2022/10/07 03:20:27;;;;;;;15.30;7.30;;;;;;;7.74;80.09;100226.02;86285;1310;22763;-77
2022/10/07 03:22:28;;;;;;;17.30;7.00;;;;;;;7.71;80.44;100228.70;86512;1310;97529;-76
2022/10/07 03:24:30;;;;;;;15.10;7.00;;;;;;;7.68;80.33;100231.01;86497;1312;22518;-77
2022/10/07 03:26:32;;;;;;;19.30;7.30;;;;;;;7.65;80.61;100228.43;86552;1294;25403;-77
2022/10/07 03:28:36;;;;;;;14.90;7.60;;;;;;;7.61;80.54;100230.42;86542;1310;98838;-76
2022/10/07 03:30:38;;;;;;;14.50;7.80;;;;;;;7.58;80.54;100231.68;86700;1299;22644;-77
2022/10/07 03:32:43;;;;;;;14.50;8.40;;;;;;;7.58;80.42;100228.71;86585;1311;22525;-76
2022/10/07 03:34:44;;;;;;;20.30;8.70;;;;;;;7.59;80.52;100227.65;86707;1287;97893;-77
2022/10/07 03:36:46;;;;;;;17.20;9.30;;;;;;;7.60;80.70;100227.98;86777;1312;23292;-77
2022/10/07 03:38:48;;;;;;;16.70;8.70;;;;;;;7.62;80.68;100226.71;86816;1310;22523;-76
2022/10/07 03:40:49;;;;;;;16.70;9.50;;;;;;;7.64;80.90;100223.02;86514;1312;98745;-76
2022/10/07 03:42:51;;;;;;;20.30;9.10;;;;;;;7.65;81.03;100223.86;86783;1282;22500;-75
2022/10/07 03:44:53;;;;;;;23.00;9.60;;;;;;;7.66;81.26;100223.67;86622;1293;25391;-76
2022/10/07 03:46:54;;;;;;;13.90;8.70;;;;;;;7.67;80.94;100223.67;86609;1312;98211;-75
2022/10/07 03:48:57;;;;;;;16.40;8.70;;;;;;;7.68;81.21;100220.68;86397;1303;22637;-75
2022/10/07 03:50:58;;;;;;;14.50;9.50;;;;;;;7.70;80.96;100217.86;86649;1292;22565;-75
2022/10/07 03:53:00;;;;;;;18.40;8.40;;;;;;;7.70;81.35;100213.33;86352;1284;98662;-78
2022/10/07 03:55:02;;;;;;;26.60;9.50;;;;;;;7.70;81.35;100215.05;86578;1284;22557;-77
2022/10/07 03:57:48;;;;;;;16.80;8.40;;;;;;;7.71;81.34;100211.19;86607;1307;22990;-77
2022/10/07 03:59:25;;;;;;;;;;;;;;;7.73;81.19;100211.02;86493;1288;99768;-76
2022/10/07 04:01:30;;;;;;;19.50;9.00;;;;;;;7.73;81.27;100206.10;86609;1308;22598;-74
2022/10/07 04:03:31;;;;;;;19.80;8.70;;;;;;;7.75;81.39;100206.23;86585;1284;22540;-75
2022/10/07 04:05:35;;;;;;;11.10;8.10;;;;;;;7.76;81.40;100200.27;86555;1308;98818;-75
2022/10/07 04:07:38;;;;;;;54.30;9.70;;;;;;;7.78;81.34;100197.27;86555;1294;26108;-76
2022/10/07 04:09:39;;;;;;;30.50;9.70;;;;;;;7.79;81.23;100199.16;86463;1300;24591;-75
2022/10/07 04:11:42;;;;;;;22.30;9.00;;;;;;;7.80;81.15;100199.51;86336;1312;98722;-74
2022/10/07 04:13:44;;;;;;;16.10;8.60;;;;;;;7.80;81.50;100199.15;86243;1304;22781;-75
2022/10/07 04:15:45;;;;;;;12.70;8.40;;;;;;;7.80;81.20;100196.34;86383;1295;24326;-75
2022/10/07 04:17:48;;;;;;;11.10;8.40;;;;;;;7.79;81.29;100193.55;86298;1310;97401;-75
2022/10/07 04:19:49;;;;;;;10.00;7.70;;;;;;;7.78;81.42;100191.65;86373;1300;22471;-75
2022/10/07 04:21:51;;;;;;;12.30;8.30;;;;;;;7.77;81.32;100190.11;86345;1294;99068;-75
2022/10/07 04:23:53;;;;;;;13.40;8.00;;;;;;;7.77;81.62;100189.23;86551;1312;25585;-75
2022/10/07 04:25:54;;;;;;;23.30;7.90;;;;;;;7.75;81.51;100185.58;86290;1288;22566;-74
2022/10/07 04:27:58;;;;;;;12.00;7.50;;;;;;;7.74;81.29;100181.73;86431;1284;99169;-75
2022/10/07 04:29:59;;;;;;;12.60;8.10;;;;;;;7.73;81.53;100182.48;86286;1294;22717;-75
2022/10/07 04:32:01;;;;;;;20.60;8.40;;;;;;;7.72;81.48;100181.78;86414;1287;22526;-76
2022/10/07 04:34:03;;;;;;;21.20;9.70;;;;;;;7.70;81.49;100180.77;86281;1284;98875;-77
2022/10/07 04:36:09;;;;;;;12.90;8.00;;;;;;;7.68;81.41;100175.91;86390;1291;24240;-75
2022/10/07 04:38:13;;;;;;;14.00;8.40;;;;;;;7.66;81.41;100178.73;86517;1291;23308;-76
2022/10/07 04:40:16;;;;;;;15.60;7.60;;;;;;;7.64;81.53;100177.88;86506;1295;98879;-75
2022/10/07 04:44:38;;;;;;;19.00;8.40;;;;;;;7.59;81.53;100178.67;86414;1293;22507;-74
2022/10/07 04:46:39;;;;;;;24.20;8.60;;;;;;;7.56;81.42;100177.84;86248;1296;98638;-75
2022/10/07 04:48:45;;;;;;;35.20;8.90;;;;;;;7.56;81.35;100179.23;86387;1302;22717;-75
2022/10/07 04:50:47;;;;;;;22.20;8.60;;;;;;;7.55;81.62;100179.96;86255;1299;23473;-75
2022/10/07 04:52:48;;;;;;;39.10;10.00;;;;;;;7.54;81.52;100177.34;86251;1292;97530;-74
2022/10/07 04:54:50;;;;;;;20.80;8.10;;;;;;;7.53;81.62;100173.53;86411;1284;22654;-74
2022/10/07 04:56:52;;;;;;;22.10;8.50;;;;;;;7.52;81.42;100177.39;86163;1288;24521;-74
2022/10/07 04:58:54;;;;;;;18.60;8.20;;;;;;;7.49;81.51;100173.41;86113;1312;99372;-74
2022/10/07 05:00:58;;;;;;;23.50;9.30;;;;;;;7.48;81.68;100179.36;86513;1306;22546;-74
2022/10/07 05:03:00;;;;;;;22.30;9.30;;;;;;;7.46;81.59;100178.02;86304;1310;24097;-75
2022/10/07 05:05:03;;;;;;;39.00;10.10;;;;;;;7.42;81.64;100175.09;86294;1288;98595;-74
2022/10/07 05:07:04;;;;;;;28.90;11.00;;;;;;;7.39;81.73;100174.27;86369;1304;22796;-75
2022/10/07 05:09:06;;;;;;;14.70;10.20;;;;;;;7.36;81.64;100174.66;86395;1284;22474;-74
2022/10/07 05:11:09;;;;;;;15.40;9.40;;;;;;;7.34;81.87;100173.48;86258;1299;98857;-75
2022/10/07 05:13:14;;;;;;;18.70;9.90;;;;;;;7.31;81.90;100168.97;86359;1306;22671;-75
2022/10/07 05:15:16;;;;;;;30.40;11.00;;;;;;;7.30;81.78;100172.48;86298;1295;22528;-75
2022/10/07 05:17:19;;;;;;;38.30;10.90;;;;;;;7.30;81.70;100172.66;86312;1292;99328;-74
2022/10/07 05:19:20;;;;;;;25.00;10.10;;;;;;;7.31;81.98;100173.51;86270;1295;25525;-73
2022/10/07 05:21:22;;;;;;;21.50;10.60;;;;;;;7.31;81.93;100171.93;86176;1309;22823;-74
2022/10/07 05:23:25;;;;;;;42.40;12.00;;;;;;;7.33;81.82;100165.63;86398;1298;98886;-75
2022/10/07 05:25:26;;;;;;;30.60;12.90;;;;;;;7.33;81.76;100167.19;86689;1291;25206;-73
2022/10/07 05:27:28;;;;;;;25.30;10.70;;;;;;;7.34;81.96;100161.59;86993;1307;22971;-74
2022/10/07 05:29:30;;;;;;;20.80;11.90;;;;;;;7.34;82.06;100165.79;86362;1314;99009;-76
2022/10/07 05:31:31;;;;;;;19.70;10.60;;;;;;;7.36;82.24;100168.04;86177;1287;22450;-75
2022/10/07 05:33:34;;;;;;;36.70;11.90;;;;;;;7.39;82.20;100169.91;86262;1311;22550;-74
2022/10/07 05:35:35;;;;;;;23.20;11.30;;;;;;;7.41;82.06;100170.23;86180;1290;97891;-75
2022/10/07 05:37:37;;;;;;;19.90;11.30;;;;;;;7.44;82.62;100165.98;86230;1291;22782;-74
2022/10/07 05:39:39;;;;;;;30.00;11.80;;;;;;;7.47;82.21;100161.90;86208;1310;25441;-74
2022/10/07 05:41:40;;;;;;;23.30;11.80;;;;;;;7.51;82.37;100163.40;86235;1293;97772;-74
2022/10/07 05:43:42;;;;;;;24.80;11.70;;;;;;;7.56;82.12;100165.78;86359;1310;24240;-74
2022/10/07 05:45:43;;;;;;;28.60;12.30;;;;;;;7.61;82.55;100165.87;86190;1290;22535;-74
2022/10/07 05:47:46;;;;;;;33.50;12.10;;;;;;;7.63;82.31;100165.66;86189;1294;98287;-75
2022/10/07 05:49:47;;;;;;;40.70;11.60;;;;;;;7.69;82.25;100165.38;86245;1306;22477;-74
2022/10/07 05:51:50;;;;;;;37.30;11.00;;;;;;;7.77;82.46;100169.10;86209;1293;22494;-74
2022/10/07 05:53:55;;;;;;;21.80;11.10;;;;;;;7.84;82.74;100171.77;86292;1288;99039;-74
2022/10/07 05:55:57;;;;;;;26.30;10.80;;;;;;;7.90;82.66;100172.89;86116;1296;25283;-74
2022/10/07 05:57:59;;;;;;;30.20;10.70;;;;;;;7.97;82.68;100173.63;86127;1286;99078;-74
2022/10/07 06:00:03;;;;;;;45.80;10.80;;;;;;;8.04;82.79;100174.20;86302;1293;22518;-75
2022/10/07 06:02:04;;;;;;;26.00;11.10;;;;;;;8.11;82.73;100175.67;86220;1296;22471;-75
2022/10/07 06:04:06;;;;;;;33.50;11.20;;;;;;;8.17;82.34;100177.48;86153;1294;99527;-75
2022/10/07 06:06:08;;;;;;;35.20;11.50;;;;;;;8.25;82.62;100175.59;86136;1311;22453;-74
2022/10/07 06:08:10;;;;;;;33.10;11.90;;;;;;;8.32;82.76;100177.55;86307;1290;22520;-75
2022/10/07 06:14:52;;;;;;;42.10;12.60;;;;;;;8.56;82.64;100173.08;86290;1293;22507;-77
2022/10/07 06:16:54;;;;;;;28.00;10.50;;;;;;;8.64;82.62;100169.04;86462;1298;99001;-75
2022/10/07 06:18:56;;;;;;;31.20;11.40;;;;;;;8.71;82.80;100172.22;86338;1295;22524;-74
2022/10/07 06:20:59;;;;;;;50.10;10.80;;;;;;;8.77;82.78;100175.78;86285;1292;23368;-75
2022/10/07 06:23:01;;;;;;;40.00;10.90;;;;;;;8.83;82.68;100171.44;86227;1310;97976;-76
2022/10/07 06:25:03;;;;;;;29.90;10.90;;;;;;;8.91;82.78;100167.77;86295;1284;22570;-75
2022/10/07 06:27:06;;;;;;;44.20;11.90;;;;;;;8.98;82.67;100167.95;86392;1300;22473;-75
2022/10/07 06:29:08;;;;;;;36.40;11.50;;;;;;;9.06;82.83;100171.64;86685;1284;97929;-75
2022/10/07 06:31:13;;;;;;;35.20;12.80;;;;;;;9.15;82.68;100169.86;86684;1290;24608;-75
2022/10/07 06:33:16;;;;;;;52.30;11.40;;;;;;;9.24;82.68;100170.70;86456;1301;22493;-75
2022/10/07 06:35:18;;;;;;;41.50;13.40;;;;;;;9.33;82.73;100167.69;86339;1292;99620;-75
2022/10/07 06:37:21;;;;;;;46.90;12.80;;;;;;;9.44;82.92;100165.68;86550;1296;22489;-75
2022/10/07 06:39:22;;;;;;;44.10;11.80;;;;;;;9.55;82.97;100167.84;86500;1286;26043;-75
2022/10/07 06:41:24;;;;;;;38.10;11.40;;;;;;;9.67;82.92;100168.60;86213;1293;98933;-74
2022/10/07 06:43:30;;;;;;;37.00;11.80;;;;;;;9.77;82.72;100166.41;86285;1302;23220;-74
2022/10/07 06:45:32;;;;;;;22.40;11.10;;;;;;;9.88;82.93;100167.02;86321;1295;23160;-75
2022/10/07 06:47:34;;;;;;;23.00;10.90;;;;;;;9.98;82.81;100165.52;86317;1310;97971;-75
2022/10/07 06:49:36;;;;;;;23.70;11.90;;;;;;;10.07;82.75;100162.14;86371;1289;22619;-74
2022/10/07 06:51:38;;;;;;;17.70;11.10;;;;;;;10.19;82.82;100157.94;86328;1309;23270;-75
2022/10/07 06:53:40;;;;;;;25.40;10.60;;;;;;;10.29;82.68;100158.18;86258;1293;100546;-75
2022/10/07 06:55:42;;;;;;;27.40;11.40;;;;;;;10.43;82.85;100159.59;86160;1293;22678;-75
2022/10/07 06:57:44;;;;;;;26.50;10.60;;;;;;;10.56;82.75;100156.41;86328;1309;24285;-74
2022/10/07 06:59:45;;;;;;;22.80;11.20;;;;;;;10.66;82.80;100155.92;86199;1309;98866;-74
2022/10/07 07:01:47;;;;;;;18.50;10.40;;;;;;;10.77;82.79;100155.26;86125;1287;25491;-74
2022/10/07 07:03:49;;;;;;;21.00;10.20;;;;;;;10.89;82.77;100155.95;86301;1284;23376;-74
2022/10/07 07:05:51;;;;;;;14.50;10.20;;;;;;;11.01;82.77;100155.40;86277;1284;98816;-73
2022/10/07 07:07:56;;;;;;;28.20;10.50;;;;;;;11.09;82.62;100155.50;86266;1295;22528;-74
2022/10/07 07:09:57;;;;;;;20.00;9.60;;;;;;;11.17;82.53;100153.33;86204;1308;99851;-74
2022/10/07 07:11:59;;;;;;;23.20;9.30;;;;;;;11.26;82.59;100149.36;86228;1288;22546;-74
2022/10/07 07:14:02;;;;;;;19.00;9.80;;;;;;;11.32;82.44;100144.73;86209;1288;22485;-73
2022/10/07 07:16:05;;;;;;;18.10;10.20;;;;;;;11.42;82.44;100148.98;86354;1289;99047;-74
2022/10/07 07:18:10;;;;;;;21.20;10.40;;;;;;;11.49;82.27;100148.09;86411;1295;22485;-73
2022/10/07 07:20:13;;;;;;;23.10;10.30;;;;;;;11.58;82.35;100151.48;86183;1298;22540;-74
2022/10/07 07:22:14;;;;;;;21.00;9.80;;;;;;;11.65;82.35;100145.60;86161;1286;99530;-74
2022/10/07 07:24:16;;;;;;;16.70;10.90;;;;;;;11.73;82.28;100147.27;86278;1301;22484;-74
2022/10/07 07:26:19;;;;;;;28.70;10.40;;;;;;;11.77;82.06;100143.78;86246;1302;24449;-75
2022/10/07 07:28:21;;;;;;;33.10;9.70;;;;;;;11.81;82.04;100139.63;86221;1302;98309;-75
2022/10/07 07:30:23;;;;;;;27.60;10.90;;;;;;;11.88;82.21;100141.48;86258;1310;25334;-76
2022/10/07 07:32:24;;;;;;;17.80;11.20;;;;;;;11.98;82.26;100139.05;86187;1304;22468;-73
2022/10/07 07:34:28;;;;;;;15.10;10.10;;;;;;;12.08;82.30;100136.92;86233;1291;98072;-73
2022/10/07 07:36:32;;;;;;;21.80;9.80;;;;;;;12.12;82.12;100129.91;86200;1287;22917;-75
2022/10/07 07:38:33;;;;;;;31.60;12.00;;;;;;;12.17;81.88;100126.76;86396;1285;25882;-75
2022/10/07 07:40:38;;;;;;;19.30;11.10;;;;;;;12.23;81.91;100125.31;86019;1296;99003;-75
2022/10/07 07:42:40;;;;;;;26.50;11.00;;;;;;;12.30;81.93;100122.20;86309;1309;22497;-74
2022/10/07 07:44:42;;;;;;;27.50;11.20;;;;;;;12.39;82.06;100120.30;86361;1295;22506;-75
2022/10/07 07:46:50;;;;;;;34.50;10.80;;;;;;;12.47;82.11;100118.75;86189;1284;99364;-74
2022/10/07 07:48:54;;;;;;;26.80;10.10;;;;;;;12.60;82.11;100120.39;86342;1295;22468;-75
2022/10/07 07:50:56;;;;;;;25.40;10.60;;;;;;;12.70;82.02;100123.20;86151;1287;22684;-74
2022/10/07 07:53:00;;;;;;;21.50;10.50;;;;;;;12.77;81.78;100122.92;86190;1286;99499;-75
2022/10/07 07:55:02;;;;;;;20.20;11.30;;;;;;;12.82;81.77;100122.92;86092;1310;24558;-75
2022/10/07 07:57:04;;;;;;;26.50;10.90;;;;;;;12.88;81.61;100121.27;86271;1309;22484;-74
2022/10/07 07:59:07;;;;;;;26.00;11.10;;;;;;;12.96;81.80;100124.13;86205;1292;98606;-74
2022/10/07 08:01:12;;;;;;;22.60;10.80;;;;;;;13.06;81.86;100121.24;86222;1308;22564;-75
2022/10/07 08:03:13;;;;;;;22.30;11.10;;;;;;;13.17;81.58;100120.50;86364;1292;22485;-75
2022/10/07 08:05:15;;;;;;;31.00;11.40;;;;;;;13.24;81.64;100116.83;86180;1288;99186;-74
2022/10/07 08:07:17;;;;;;;24.10;12.20;;;;;;;13.29;81.37;100109.75;86306;1309;22480;-76
2022/10/07 08:09:18;;;;;;;18.10;12.00;;;;;;;13.35;81.22;100110.39;86251;1289;22507;-74
2022/10/07 08:11:21;;;;;;;32.80;12.10;;;;;;;13.42;81.33;100110.11;86197;1285;98421;-74
2022/10/07 08:13:23;;;;;;;20.60;11.70;;;;;;;13.54;81.41;100109.09;86404;1288;22480;-73
2022/10/07 08:15:25;;;;;;;35.00;12.60;;;;;;;13.65;81.24;100106.34;86329;1287;22697;-75
2022/10/07 08:17:26;;;;;;;32.90;12.90;;;;;;;13.70;81.07;100102.94;86250;1294;99264;-74
2022/10/07 08:19:29;;;;;;;31.40;13.30;;;;;;;13.74;81.11;100100.63;86363;1292;24565;-74
2022/10/07 08:21:34;;;;;;;32.10;15.00;;;;;;;13.79;81.00;100095.13;86201;1295;23445;-76
2022/10/07 08:23:37;;;;;;;40.00;14.50;;;;;;;13.91;80.90;100096.55;86042;1294;99012;-74
2022/10/07 08:25:39;;;;;;;22.20;13.40;;;;;;;14.06;81.09;100096.59;86159;1289;22473;-74
2022/10/07 08:27:40;;;;;;;35.90;13.50;;;;;;;14.20;81.05;100089.09;86206;1287;25283;-74
2022/10/07 08:29:42;;;;;;;21.20;13.30;;;;;;;14.33;80.97;100087.98;85944;1304;99179;-73
2022/10/07 08:31:43;;;;;;;26.70;13.90;;;;;;;14.40;80.76;100080.73;86156;1309;22525;-71
2022/10/07 08:33:47;;;;;;;33.30;12.80;;;;;;;14.53;80.75;100081.59;86196;1310;23558;-74
2022/10/07 08:35:50;;;;;;;31.40;12.70;;;;;;;14.60;80.52;100081.43;86014;1288;97704;-74
2022/10/07 08:37:52;;;;;;;26.10;13.10;;;;;;;14.70;80.44;100083.29;86235;1295;22498;-73
2022/10/07 08:39:54;;;;;;;22.20;12.40;;;;;;;14.77;80.43;100078.15;86194;1291;99740;-74
2022/10/07 08:42:15;;;;;;;27.80;12.90;;;;;;;14.86;80.23;100076.84;86187;1294;22648;-79
2022/10/07 08:44:17;;;;;;;23.70;12.20;;;;;;;14.95;80.12;100074.11;86392;1287;25936;-78
2022/10/07 08:46:27;;;;;;;34.00;13.30;;;;;;;15.03;80.19;100071.42;86404;1303;99059;-78
2022/10/07 08:48:37;;;;;;;33.30;13.90;;;;;;;15.09;80.15;100068.98;86285;1281;22463;-79
2022/10/07 08:51:09;;;;;;;25.40;12.90;;;;;;;15.25;80.41;100069.64;86287;1301;22470;-79
2022/10/07 08:53:19;;;;;;;22.10;12.80;;;;;;;15.41;80.05;100069.17;86108;1298;99132;-79
2022/10/07 08:55:49;;;;;;;36.50;13.20;;;;;;;15.42;79.39;100069.48;86236;1287;25306;-79
2022/10/07 08:58:21;;;;;;;36.40;13.60;;;;;;;15.43;79.64;100069.23;86304;1309;24291;-77
2022/10/07 09:00:23;;;;;;;34.60;13.30;;;;;;;15.57;79.72;100058.27;86291;1284;24312;-78
2022/10/07 09:02:38;;;;;;;39.00;14.90;;;;;;;15.57;79.34;100053.88;86082;1295;22485;-78
2022/10/07 09:04:53;;;;;;;31.80;13.40;;;;;;;15.55;79.23;100047.76;86222;1296;99145;-78
2022/10/07 09:07:01;;;;;;;31.00;12.70;;;;;;;15.57;79.15;100050.67;86424;1287;22796;-78
2022/10/07 09:09:16;;;;;;;35.40;14.20;;;;;;;15.61;79.30;100049.40;86392;1295;24583;-79
2022/10/07 09:11:24;;;;;;;25.10;13.70;;;;;;;15.61;78.87;100046.73;86160;1288;99134;-77
2022/10/07 09:13:29;;;;;;;32.70;14.60;;;;;;;15.59;78.90;100046.48;86260;1309;22641;-78
2022/10/07 09:15:52;;;;;;;35.60;14.30;;;;;;;15.59;78.92;100043.64;86258;1280;22502;-77
2022/10/07 09:18:04;;;;;;;35.90;14.30;;;;;;;15.63;79.06;100042.37;86182;1292;98952;-79
2022/10/07 09:20:18;;;;;;;34.60;13.20;;;;;;;15.68;79.08;100038.60;86285;1303;23342;-78
2022/10/07 09:22:28;;;;;;;22.50;13.30;;;;;;;15.75;79.18;100034.48;86264;1288;99649;-78
2022/10/07 09:24:31;;;;;;;44.50;14.00;;;;;;;15.85;79.11;100035.77;86213;1303;22514;-78
2022/10/07 09:26:32;;;;;;;30.40;13.40;;;;;;;15.93;79.08;100031.27;85950;1290;24395;-79
2022/10/07 09:28:35;;;;;;;46.80;13.80;;;;;;;16.09;79.25;100025.98;86087;1288;99784;-78
2022/10/07 09:30:37;;;;;;;41.60;13.90;;;;;;;16.15;78.76;100024.58;86171;1293;22487;-79
2022/10/07 09:32:48;;;;;;;28.80;14.70;;;;;;;16.24;79.08;100026.77;86209;1285;25279;-78
2022/10/07 09:34:51;;;;;;;38.30;14.10;;;;;;;16.30;78.62;100022.53;86309;1286;99169;-77
2022/10/07 09:37:15;;;;;;;38.20;15.00;;;;;;;16.31;78.43;100020.54;86285;1301;22500;-77
2022/10/07 09:39:22;;;;;;;33.10;13.80;;;;;;;16.37;78.51;100020.05;86121;1310;25370;-77
2022/10/07 09:41:30;;;;;;;39.20;14.30;;;;;;;16.48;78.59;100016.21;86061;1295;99377;-77
2022/10/07 09:43:34;;;;;;;33.40;14.40;;;;;;;16.68;78.80;100017.42;86283;1297;25368;-79
2022/10/07 09:45:36;;;;;;;24.00;13.70;;;;;;;16.88;78.60;100012.05;86269;1291;22466;-78